Language: 


Des rapports , des résumés tant et plus, au choix de chacun....


Données Historiques de Météogheer
Journalier Rapport pour Mars 9, 2017 Unitée:  Les deux    Impériale   Métrique
Suivant Jour »
Journalier Hebdomadaire Mensuel Annuel Sur mesure
  Max: Min: Moyenne:
Température: 61.9 °F /  16.6 °C 42.6 °F /  5.9 °C 52.9 °F /  11.6 °C
Point de rosée: 54 °F /  12.2 °C 39 °F /  3.9 °C 49.6 °F /  9.8 °C
Humidité: 98% 69% 89%
Vent: 17.4mph /  28.0km/h - 6.8mph /  10.9km/h
Rafales: 18.8mph /  30.2km/h - -
Vent- - WSW
Pression: 30.3 in /  1026.0 hPa 30 in /  1016.1 hPa -
Pluie: 0.02 in /  0.5 mm    
Historical Graphs
 
 
Données tabulaires pour Mars 9, 2017
Heure Température Point de rosée Pression Vent Vent Rafales Humidité Pluie Taux (Horaire) Conditions
00:04 51.3 °F /  10.7 °C 50.2 °F /  10.1 °C 30in /  1016.1hPa WSW 7.8mph /  12.6km/h 10.3mph /  16.6km/h 96% 0in /  0.0mm
00:09 51.3 °F /  10.7 °C 50.2 °F /  10.1 °C 30in /  1016.8hPa WSW 9.2mph /  14.8km/h 10.7mph /  17.2km/h 96% 0in /  0.0mm
00:14 51.3 °F /  10.7 °C 50.2 °F /  10.1 °C 30in /  1016.8hPa WSW 6.9mph /  11.1km/h 12.5mph /  20.1km/h 96% 0in /  0.0mm
00:19 51.3 °F /  10.7 °C 50.2 °F /  10.1 °C 30in /  1016.8hPa WSW 7.6mph /  12.2km/h 12.5mph /  20.1km/h 96% 0in /  0.0mm
00:24 51.3 °F /  10.7 °C 50.2 °F /  10.1 °C 30in /  1016.8hPa WSW 6.3mph /  10.1km/h 12.5mph /  20.1km/h 96% 0in /  0.0mm
00:29 51.3 °F /  10.7 °C 50.2 °F /  10.1 °C 30in /  1016.8hPa WSW 8.5mph /  13.7km/h 12.5mph /  20.1km/h 96% 0in /  0.0mm
00:34 51.3 °F /  10.7 °C 50.2 °F /  10.1 °C 30in /  1016.8hPa West 11.9mph /  19.1km/h 11.9mph /  19.1km/h 96% 0in /  0.0mm
00:39 51.3 °F /  10.7 °C 50.2 °F /  10.1 °C 30in /  1016.8hPa WSW 8.1mph /  13.0km/h 11.9mph /  19.1km/h 96% 0in /  0.0mm
00:44 51.3 °F /  10.7 °C 50.2 °F /  10.1 °C 30in /  1016.8hPa WSW 8.1mph /  13.0km/h 12.3mph /  19.8km/h 96% 0in /  0.0mm
00:49 51.3 °F /  10.7 °C 50.2 °F /  10.1 °C 30in /  1016.8hPa WSW 8.1mph /  13.0km/h 12.3mph /  19.8km/h 96% 0in /  0.0mm
00:54 51.3 °F /  10.7 °C 50.2 °F /  10.1 °C 30in /  1016.8hPa WSW 11mph /  17.7km/h 13.2mph /  21.2km/h 96% 0in /  0.0mm
00:59 51.3 °F /  10.7 °C 50.2 °F /  10.1 °C 30in /  1016.8hPa WSW 7.4mph /  11.9km/h 13.2mph /  21.2km/h 96% 0in /  0.0mm
01:04 51.3 °F /  10.7 °C 50.2 °F /  10.1 °C 30in /  1016.8hPa WSW 11.2mph /  18.0km/h 13.9mph /  22.4km/h 96% 0in /  0.0mm
01:09 51.3 °F /  10.7 °C 50.2 °F /  10.1 °C 30in /  1016.8hPa WSW 10.5mph /  16.9km/h 14.5mph /  23.3km/h 96% 0in /  0.0mm
01:14 51.3 °F /  10.7 °C 50.2 °F /  10.1 °C 30in /  1016.8hPa West 10.1mph /  16.3km/h 14.5mph /  23.3km/h 96% 0in /  0.0mm
01:19 51.3 °F /  10.7 °C 50.2 °F /  10.1 °C 30in /  1016.8hPa West 10.7mph /  17.2km/h 14.8mph /  23.8km/h 96% 0in /  0.0mm
01:24 51.3 °F /  10.7 °C 50.2 °F /  10.1 °C 30in /  1016.8hPa WSW 7.6mph /  12.2km/h 15.2mph /  24.5km/h 96% 0in /  0.0mm
01:29 51.3 °F /  10.7 °C 50.2 °F /  10.1 °C 30in /  1016.8hPa WSW 8.5mph /  13.7km/h 15.2mph /  24.5km/h 96% 0in /  0.0mm
01:34 51.3 °F /  10.7 °C 50.2 °F /  10.1 °C 30in /  1016.8hPa West 13.2mph /  21.2km/h 13.2mph /  21.2km/h 96% 0in /  0.0mm
01:39 51.3 °F /  10.7 °C 50.2 °F /  10.1 °C 30in /  1016.8hPa WSW 10.5mph /  16.9km/h 13.9mph /  22.4km/h 96% 0in /  0.0mm
01:44 51.3 °F /  10.7 °C 50.2 °F /  10.1 °C 30in /  1016.8hPa WSW 8.7mph /  14.0km/h 13.9mph /  22.4km/h 96% 0in /  0.0mm
01:49 51.3 °F /  10.7 °C 50.4 °F /  10.2 °C 30in /  1016.8hPa WSW 9.8mph /  15.8km/h 11mph /  17.7km/h 97% 0in /  0.0mm
01:54 51.3 °F /  10.7 °C 50.2 °F /  10.1 °C 30in /  1016.8hPa WSW 7.2mph /  11.6km/h 11.2mph /  18.0km/h 96% 0in /  0.0mm
01:59 51.3 °F /  10.7 °C 50.2 °F /  10.1 °C 30in /  1016.8hPa West 7.6mph /  12.2km/h 11.2mph /  18.0km/h 96% 0in /  0.0mm
02:04 51.3 °F /  10.7 °C 50.2 °F /  10.1 °C 30in /  1016.8hPa WSW 10.1mph /  16.3km/h 10.5mph /  16.9km/h 96% 0in /  0.0mm
02:09 51.3 °F /  10.7 °C 50.2 °F /  10.1 °C 30in /  1016.8hPa West 10.3mph /  16.6km/h 13.2mph /  21.2km/h 96% 0in /  0.0mm
02:14 51.3 °F /  10.7 °C 50.2 °F /  10.1 °C 30in /  1016.8hPa WSW 8.1mph /  13.0km/h 13.2mph /  21.2km/h 96% 0in /  0.0mm
02:19 51.3 °F /  10.7 °C 50.4 °F /  10.2 °C 30in /  1016.8hPa WSW 10.1mph /  16.3km/h 11mph /  17.7km/h 97% 0in /  0.0mm
02:24 51.1 °F /  10.6 °C 50.2 °F /  10.1 °C 30in /  1016.8hPa WSW 10.3mph /  16.6km/h 10.3mph /  16.6km/h 97% 0in /  0.0mm
02:29 51.1 °F /  10.6 °C 50.2 °F /  10.1 °C 30in /  1016.8hPa WSW 11.9mph /  19.1km/h 11.9mph /  19.1km/h 97% 0in /  0.0mm
02:34 51.1 °F /  10.6 °C 50.2 °F /  10.1 °C 30in /  1016.8hPa SW 10.5mph /  16.9km/h 14.3mph /  23.0km/h 97% 0in /  0.0mm
02:39 51.1 °F /  10.6 °C 50.2 °F /  10.1 °C 30in /  1016.8hPa WSW 11mph /  17.7km/h 14.3mph /  23.0km/h 97% 0in /  0.0mm
02:44 51.1 °F /  10.6 °C 50.2 °F /  10.1 °C 30in /  1016.8hPa WSW 10.7mph /  17.2km/h 13.2mph /  21.2km/h 97% 0in /  0.0mm
02:49 51.3 °F /  10.7 °C 50.4 °F /  10.2 °C 30in /  1016.8hPa WSW 8.5mph /  13.7km/h 13mph /  20.9km/h 97% 0in /  0.0mm
02:54 51.3 °F /  10.7 °C 50.4 °F /  10.2 °C 30in /  1016.8hPa WSW 8.7mph /  14.0km/h 13mph /  20.9km/h 97% 0in /  0.0mm
02:59 51.3 °F /  10.7 °C 50.4 °F /  10.2 °C 30in /  1016.8hPa WSW 7.4mph /  11.9km/h 12.3mph /  19.8km/h 97% 0in /  0.0mm
03:04 51.3 °F /  10.7 °C 50.4 °F /  10.2 °C 30in /  1016.8hPa WSW 9.6mph /  15.4km/h 12.1mph /  19.5km/h 97% 0in /  0.0mm
03:09 51.3 °F /  10.7 °C 50.4 °F /  10.2 °C 30.1in /  1018.2hPa WSW 6.9mph /  11.1km/h 10.5mph /  16.9km/h 97% 0in /  0.0mm
03:14 51.3 °F /  10.7 °C 50.4 °F /  10.2 °C 30.1in /  1018.2hPa WSW 7.4mph /  11.9km/h 9.8mph /  15.8km/h 97% 0in /  0.0mm
03:19 51.3 °F /  10.7 °C 50.4 °F /  10.2 °C 30.1in /  1018.2hPa WSW 7.6mph /  12.2km/h 9.8mph /  15.8km/h 97% 0in /  0.0mm
03:24 51.3 °F /  10.7 °C 50.4 °F /  10.2 °C 30in /  1016.8hPa WSW 7.8mph /  12.6km/h 10.3mph /  16.6km/h 97% 0in /  0.0mm
03:29 51.1 °F /  10.6 °C 50.2 °F /  10.1 °C 30in /  1016.8hPa WSW 7.4mph /  11.9km/h 10.3mph /  16.6km/h 97% 0in /  0.0mm
03:34 51.1 °F /  10.6 °C 50.2 °F /  10.1 °C 30in /  1016.8hPa WSW 7.4mph /  11.9km/h 10.3mph /  16.6km/h 97% 0in /  0.0mm
03:39 51.1 °F /  10.6 °C 50.2 °F /  10.1 °C 30in /  1016.8hPa West 6mph /  9.7km/h 10.1mph /  16.3km/h 97% 0in /  0.0mm
03:44 51.3 °F /  10.7 °C 50.4 °F /  10.2 °C 30in /  1016.8hPa WSW 8.7mph /  14.0km/h 10.5mph /  16.9km/h 97% 0in /  0.0mm
03:49 51.3 °F /  10.7 °C 50.4 °F /  10.2 °C 30in /  1016.8hPa West 12.1mph /  19.5km/h 12.5mph /  20.1km/h 97% 0in /  0.0mm
03:54 51.3 °F /  10.7 °C 50.4 °F /  10.2 °C 30in /  1016.8hPa West 10.1mph /  16.3km/h 12.5mph /  20.1km/h 97% 0in /  0.0mm
03:59 51.3 °F /  10.7 °C 50.4 °F /  10.2 °C 30in /  1016.8hPa WSW 11mph /  17.7km/h 13.2mph /  21.2km/h 97% 0in /  0.0mm
04:04 51.3 °F /  10.7 °C 50.4 °F /  10.2 °C 30in /  1016.8hPa West 8.5mph /  13.7km/h 13.2mph /  21.2km/h 97% 0in /  0.0mm
04:09 51.3 °F /  10.7 °C 50.4 °F /  10.2 °C 30in /  1016.8hPa WSW 8.7mph /  14.0km/h 12.5mph /  20.1km/h 97% 0in /  0.0mm
04:14 51.3 °F /  10.7 °C 50.4 °F /  10.2 °C 30in /  1016.8hPa WSW 6.5mph /  10.5km/h 12.1mph /  19.5km/h 97% 0in /  0.0mm
04:19 51.3 °F /  10.7 °C 50.4 °F /  10.2 °C 30in /  1016.8hPa WSW 8.5mph /  13.7km/h 11.2mph /  18.0km/h 97% 0in /  0.0mm
04:24 51.3 °F /  10.7 °C 50.4 °F /  10.2 °C 30.1in /  1018.2hPa WSW 6.5mph /  10.5km/h 11.2mph /  18.0km/h 97% 0in /  0.0mm
04:29 51.3 °F /  10.7 °C 50.4 °F /  10.2 °C 30.1in /  1018.2hPa WSW 8.7mph /  14.0km/h 12.1mph /  19.5km/h 97% 0.01in /  0.3mm
04:34 51.3 °F /  10.7 °C 50.4 °F /  10.2 °C 30.1in /  1018.2hPa West 8.5mph /  13.7km/h 12.5mph /  20.1km/h 97% 0.01in /  0.3mm
04:39 51.3 °F /  10.7 °C 50.4 °F /  10.2 °C 30in /  1016.8hPa SW 6mph /  9.7km/h 12.5mph /  20.1km/h 97% 0.01in /  0.3mm
04:44 51.3 °F /  10.7 °C 50.4 °F /  10.2 °C 30in /  1016.8hPa WSW 6mph /  9.7km/h 10.7mph /  17.2km/h 97% 0.01in /  0.3mm
04:49 51.3 °F /  10.7 °C 50.4 °F /  10.2 °C 30in /  1016.8hPa WSW 8.7mph /  14.0km/h 11.2mph /  18.0km/h 97% 0.01in /  0.3mm
04:54 51.3 °F /  10.7 °C 50.4 °F /  10.2 °C 30in /  1016.8hPa WSW 7.6mph /  12.2km/h 11.2mph /  18.0km/h 97% 0.01in /  0.3mm
04:59 51.1 °F /  10.6 °C 50.2 °F /  10.1 °C 30in /  1016.8hPa WSW 8.5mph /  13.7km/h 10.3mph /  16.6km/h 97% 0.01in /  0.3mm
05:04 51.1 °F /  10.6 °C 50.2 °F /  10.1 °C 30in /  1016.8hPa WSW 8.1mph /  13.0km/h 10.5mph /  16.9km/h 97% 0.02in /  0.5mm
05:09 51.3 °F /  10.7 °C 50.4 °F /  10.2 °C 30in /  1016.8hPa SW 9.4mph /  15.1km/h 10.5mph /  16.9km/h 97% 0.02in /  0.5mm
05:14 51.1 °F /  10.6 °C 50.2 °F /  10.1 °C 30in /  1016.8hPa WSW 7.4mph /  11.9km/h 10.3mph /  16.6km/h 97% 0.02in /  0.5mm
05:19 51.1 °F /  10.6 °C 50.2 °F /  10.1 °C 30in /  1016.8hPa WSW 8.7mph /  14.0km/h 10.1mph /  16.3km/h 97% 0.02in /  0.5mm
05:24 51.1 °F /  10.6 °C 50.2 °F /  10.1 °C 30in /  1016.8hPa WSW 8.1mph /  13.0km/h 10.1mph /  16.3km/h 97% 0.02in /  0.5mm
05:29 51.1 °F /  10.6 °C 50.2 °F /  10.1 °C 30in /  1016.8hPa WSW 8.1mph /  13.0km/h 9.8mph /  15.8km/h 97% 0.01in /  0.3mm
05:34 51.1 °F /  10.6 °C 50.2 °F /  10.1 °C 30in /  1016.8hPa West 8.5mph /  13.7km/h 10.7mph /  17.2km/h 97% 0.01in /  0.3mm
05:39 51.1 °F /  10.6 °C 50.2 °F /  10.1 °C 30in /  1016.8hPa WSW 6.3mph /  10.1km/h 10.7mph /  17.2km/h 97% 0.01in /  0.3mm
05:44 51.1 °F /  10.6 °C 50.2 °F /  10.1 °C 30in /  1016.8hPa WSW 7.4mph /  11.9km/h 10.7mph /  17.2km/h 97% 0.01in /  0.3mm
05:49 51.1 °F /  10.6 °C 50.2 °F /  10.1 °C 30in /  1016.8hPa WSW 9.2mph /  14.8km/h 12.8mph /  20.6km/h 97% 0.01in /  0.3mm
05:54 51.1 °F /  10.6 °C 50.2 °F /  10.1 °C 30in /  1016.1hPa WSW 6.3mph /  10.1km/h 12.8mph /  20.6km/h 97% 0.01in /  0.3mm
05:59 51.1 °F /  10.6 °C 50.2 °F /  10.1 °C 30in /  1016.1hPa WSW 6mph /  9.7km/h 10.7mph /  17.2km/h 97% 0.01in /  0.3mm
06:04 51.1 °F /  10.6 °C 50.2 °F /  10.1 °C 30in /  1016.1hPa WSW 6mph /  9.7km/h 10.5mph /  16.9km/h 97% 0in /  0.0mm
06:09 51.1 °F /  10.6 °C 50.2 °F /  10.1 °C 30in /  1016.1hPa WSW 9.4mph /  15.1km/h 11mph /  17.7km/h 97% 0in /  0.0mm
06:14 51.3 °F /  10.7 °C 50.4 °F /  10.2 °C 30in /  1016.1hPa WSW 11mph /  17.7km/h 13mph /  20.9km/h 97% 0in /  0.0mm
06:19 51.3 °F /  10.7 °C 50.7 °F /  10.4 °C 30in /  1016.1hPa West 11.2mph /  18.0km/h 13mph /  20.9km/h 98% 0in /  0.0mm
06:24 51.3 °F /  10.7 °C 50.7 °F /  10.4 °C 30in /  1016.1hPa WSW 7.8mph /  12.6km/h 14.3mph /  23.0km/h 98% 0in /  0.0mm
06:29 51.3 °F /  10.7 °C 50.7 °F /  10.4 °C 30in /  1016.1hPa WSW 13mph /  20.9km/h 14.8mph /  23.8km/h 98% 0in /  0.0mm
06:34 51.3 °F /  10.7 °C 50.7 °F /  10.4 °C 30in /  1016.1hPa West 11mph /  17.7km/h 15.9mph /  25.6km/h 98% 0in /  0.0mm
06:39 51.4 °F /  10.8 °C 50.5 °F /  10.3 °C 30in /  1016.8hPa West 9.2mph /  14.8km/h 15.9mph /  25.6km/h 97% 0in /  0.0mm
06:44 51.4 °F /  10.8 °C 50.5 °F /  10.3 °C 30in /  1016.8hPa WSW 9.8mph /  15.8km/h 15.2mph /  24.5km/h 97% 0in /  0.0mm
06:49 51.4 °F /  10.8 °C 50.5 °F /  10.3 °C 30in /  1016.8hPa WSW 11mph /  17.7km/h 13.6mph /  21.9km/h 97% 0in /  0.0mm
06:54 51.4 °F /  10.8 °C 50.5 °F /  10.3 °C 30in /  1016.8hPa WSW 11.2mph /  18.0km/h 13.2mph /  21.2km/h 97% 0in /  0.0mm
06:59 51.4 °F /  10.8 °C 50.5 °F /  10.3 °C 30in /  1016.8hPa WSW 11mph /  17.7km/h 14.8mph /  23.8km/h 97% 0in /  0.0mm
07:04 51.4 °F /  10.8 °C 50.5 °F /  10.3 °C 30in /  1016.8hPa West 15.7mph /  25.3km/h 15.7mph /  25.3km/h 97% 0in /  0.0mm
07:09 51.4 °F /  10.8 °C 50.5 °F /  10.3 °C 30in /  1016.8hPa West 10.5mph /  16.9km/h 15.7mph /  25.3km/h 97% 0in /  0.0mm
07:14 51.4 °F /  10.8 °C 50.5 °F /  10.3 °C 30in /  1016.8hPa West 12.3mph /  19.8km/h 15.7mph /  25.3km/h 97% 0in /  0.0mm
07:19 51.4 °F /  10.8 °C 50.5 °F /  10.3 °C 30in /  1016.8hPa West 13.2mph /  21.2km/h 15.2mph /  24.5km/h 97% 0in /  0.0mm
07:24 51.6 °F /  10.9 °C 50.7 °F /  10.4 °C 30in /  1016.8hPa WSW 12.3mph /  19.8km/h 15.4mph /  24.8km/h 97% 0in /  0.0mm
07:29 51.6 °F /  10.9 °C 50.7 °F /  10.4 °C 30in /  1016.8hPa West 13.2mph /  21.2km/h 16.3mph /  26.2km/h 97% 0in /  0.0mm
07:34 51.6 °F /  10.9 °C 50.7 °F /  10.4 °C 30in /  1016.8hPa West 10.1mph /  16.3km/h 16.6mph /  26.7km/h 97% 0in /  0.0mm
07:39 51.6 °F /  10.9 °C 50.7 °F /  10.4 °C 30in /  1016.8hPa WSW 11mph /  17.7km/h 18.1mph /  29.1km/h 97% 0in /  0.0mm
07:44 51.8 °F /  11.0 °C 50.9 °F /  10.5 °C 30in /  1016.8hPa West 12.8mph /  20.6km/h 18.1mph /  29.1km/h 97% 0in /  0.0mm
07:49 51.8 °F /  11.0 °C 50.7 °F /  10.4 °C 30in /  1016.8hPa West 7.8mph /  12.6km/h 18.8mph /  30.2km/h 96% 0in /  0.0mm
07:54 51.8 °F /  11.0 °C 50.7 °F /  10.4 °C 30in /  1016.8hPa West 9.8mph /  15.8km/h 18.8mph /  30.2km/h 96% 0in /  0.0mm
07:59 51.8 °F /  11.0 °C 50.7 °F /  10.4 °C 30in /  1016.8hPa WSW 10.7mph /  17.2km/h 14.8mph /  23.8km/h 96% 0in /  0.0mm
08:04 51.8 °F /  11.0 °C 50.7 °F /  10.4 °C 30in /  1016.8hPa WSW 9.8mph /  15.8km/h 14.5mph /  23.3km/h 96% 0in /  0.0mm
08:09 52 °F /  11.1 °C 50.7 °F /  10.4 °C 30in /  1016.8hPa West 11mph /  17.7km/h 13mph /  20.9km/h 96% 0in /  0.0mm
08:14 52 °F /  11.1 °C 50.7 °F /  10.4 °C 30in /  1016.8hPa West 5.8mph /  9.3km/h 11.4mph /  18.3km/h 96% 0in /  0.0mm
08:19 52 °F /  11.1 °C 50.7 °F /  10.4 °C 30in /  1016.8hPa WSW 10.3mph /  16.6km/h 13.2mph /  21.2km/h 96% 0in /  0.0mm
08:24 52 °F /  11.1 °C 50.7 °F /  10.4 °C 30in /  1016.8hPa West 12.1mph /  19.5km/h 15.2mph /  24.5km/h 96% 0in /  0.0mm
08:29 52 °F /  11.1 °C 50.5 °F /  10.3 °C 30in /  1016.8hPa West 16.1mph /  25.9km/h 17.2mph /  27.7km/h 95% 0in /  0.0mm
08:34 52.2 °F /  11.2 °C 50.7 °F /  10.4 °C 30in /  1016.8hPa WSW 10.1mph /  16.3km/h 17.2mph /  27.7km/h 95% 0in /  0.0mm
08:39 52.2 °F /  11.2 °C 50.7 °F /  10.4 °C 30in /  1016.8hPa WSW 12.5mph /  20.1km/h 16.8mph /  27.0km/h 95% 0in /  0.0mm
08:44 52.2 °F /  11.2 °C 50.7 °F /  10.4 °C 30in /  1016.8hPa WSW 9.8mph /  15.8km/h 16.8mph /  27.0km/h 95% 0in /  0.0mm
08:49 52.2 °F /  11.2 °C 50.7 °F /  10.4 °C 30in /  1016.8hPa West 12.8mph /  20.6km/h 16.1mph /  25.9km/h 95% 0in /  0.0mm
08:54 52.2 °F /  11.2 °C 50.7 °F /  10.4 °C 30in /  1016.8hPa West 12.5mph /  20.1km/h 16.1mph /  25.9km/h 95% 0in /  0.0mm
08:59 52.2 °F /  11.2 °C 50.7 °F /  10.4 °C 30in /  1016.8hPa WSW 12.8mph /  20.6km/h 15.4mph /  24.8km/h 95% 0in /  0.0mm
09:04 52.2 °F /  11.2 °C 50.7 °F /  10.4 °C 30in /  1016.8hPa West 10.5mph /  16.9km/h 15.4mph /  24.8km/h 95% 0in /  0.0mm
09:09 52.2 °F /  11.2 °C 50.7 °F /  10.4 °C 30in /  1016.8hPa WSW 10.5mph /  16.9km/h 15.2mph /  24.5km/h 95% 0in /  0.0mm
09:14 52.3 °F /  11.3 °C 50.9 °F /  10.5 °C 30in /  1016.8hPa WSW 14.8mph /  23.8km/h 15.4mph /  24.8km/h 95% 0in /  0.0mm
09:19 52.3 °F /  11.3 °C 50.9 °F /  10.5 °C 30in /  1016.8hPa West 6mph /  9.7km/h 15.4mph /  24.8km/h 95% 0in /  0.0mm
09:24 52.3 °F /  11.3 °C 50.9 °F /  10.5 °C 30.1in /  1018.2hPa West 7.6mph /  12.2km/h 13mph /  20.9km/h 95% 0in /  0.0mm
09:29 52.5 °F /  11.4 °C 51.1 °F /  10.6 °C 30.1in /  1018.2hPa West 3.1mph /  5.0km/h 12.1mph /  19.5km/h 95% 0in /  0.0mm
09:34 52.5 °F /  11.4 °C 51.1 °F /  10.6 °C 30.1in /  1018.2hPa NW 6.3mph /  10.1km/h 13.2mph /  21.2km/h 95% 0in /  0.0mm
09:39 52.5 °F /  11.4 °C 51.1 °F /  10.6 °C 30.1in /  1018.2hPa NW 2mph /  3.2km/h 13.2mph /  21.2km/h 95% 0in /  0.0mm
09:44 52.5 °F /  11.4 °C 51.1 °F /  10.6 °C 30.1in /  1018.2hPa West 4.3mph /  6.9km/h 12.1mph /  19.5km/h 95% 0in /  0.0mm
09:49 52.5 °F /  11.4 °C 51.1 °F /  10.6 °C 30.1in /  1018.2hPa WNW 4.3mph /  6.9km/h 13.2mph /  21.2km/h 95% 0in /  0.0mm
09:54 52.5 °F /  11.4 °C 51.3 °F /  10.7 °C 30.1in /  1018.2hPa SSW 12.8mph /  20.6km/h 13.2mph /  21.2km/h 95% 0in /  0.0mm
10:00 52.5 °F /  11.4 °C 51.3 °F /  10.7 °C 30.1in /  1018.2hPa West 7.8mph /  12.6km/h 12.8mph /  20.6km/h 95% 0in /  0.0mm
10:05 52.5 °F /  11.4 °C 51.3 °F /  10.7 °C 30.1in /  1018.2hPa WSW 3.1mph /  5.0km/h 14.3mph /  23.0km/h 95% 0in /  0.0mm
10:10 52.9 °F /  11.6 °C 51.4 °F /  10.8 °C 30.1in /  1018.8hPa WSW 6.3mph /  10.1km/h 14.3mph /  23.0km/h 95% 0in /  0.0mm
10:15 53.1 °F /  11.7 °C 51.6 °F /  10.9 °C 30.1in /  1018.8hPa West 10.3mph /  16.6km/h 10.7mph /  17.2km/h 95% 0in /  0.0mm
10:20 53.1 °F /  11.7 °C 51.6 °F /  10.9 °C 30.1in /  1018.8hPa WSW 10.1mph /  16.3km/h 11mph /  17.7km/h 95% 0in /  0.0mm
10:24 53.2 °F /  11.8 °C 51.8 °F /  11.0 °C 30.1in /  1018.8hPa West 6.5mph /  10.5km/h 11mph /  17.7km/h 95% 0in /  0.0mm
10:29 53.2 °F /  11.8 °C 52 °F /  11.1 °C 30.1in /  1018.8hPa WSW 5.8mph /  9.3km/h 11.9mph /  19.1km/h 95% 0in /  0.0mm
10:35 53.4 °F /  11.9 °C 52.2 °F /  11.2 °C 30.1in /  1018.8hPa West 11mph /  17.7km/h 12.5mph /  20.1km/h 95% 0in /  0.0mm
10:40 53.4 °F /  11.9 °C 52.2 °F /  11.2 °C 30.1in /  1018.8hPa WSW 7.6mph /  12.2km/h 12.5mph /  20.1km/h 95% 0in /  0.0mm
10:45 53.8 °F /  12.1 °C 52.3 °F /  11.3 °C 30.1in /  1018.8hPa WSW 8.5mph /  13.7km/h 12.5mph /  20.1km/h 95% 0in /  0.0mm
10:50 54 °F /  12.2 °C 52.7 °F /  11.5 °C 30.1in /  1018.8hPa WSW 7.6mph /  12.2km/h 13mph /  20.9km/h 95% 0in /  0.0mm
10:55 54 °F /  12.2 °C 52.7 °F /  11.5 °C 30.1in /  1018.8hPa WSW 9.8mph /  15.8km/h 13.4mph /  21.6km/h 95% 0in /  0.0mm
11:00 54.7 °F /  12.6 °C 53.2 °F /  11.8 °C 30.1in /  1018.8hPa WSW 10.5mph /  16.9km/h 13.4mph /  21.6km/h 95% 0in /  0.0mm
11:05 54.9 °F /  12.7 °C 53.4 °F /  11.9 °C 30.1in /  1018.8hPa West 9.6mph /  15.4km/h 13.2mph /  21.2km/h 95% 0in /  0.0mm
11:10 54.9 °F /  12.7 °C 53.4 °F /  11.9 °C 30.1in /  1018.8hPa West 13mph /  20.9km/h 13mph /  20.9km/h 95% 0in /  0.0mm
11:15 54.9 °F /  12.7 °C 53.4 °F /  11.9 °C 30.1in /  1018.8hPa WSW 11mph /  17.7km/h 15.2mph /  24.5km/h 95% 0in /  0.0mm
11:20 54.9 °F /  12.7 °C 53.4 °F /  11.9 °C 30.1in /  1018.8hPa WSW 10.7mph /  17.2km/h 15.2mph /  24.5km/h 95% 0in /  0.0mm
11:25 54.9 °F /  12.7 °C 53.4 °F /  11.9 °C 30.1in /  1018.8hPa West 10.5mph /  16.9km/h 12.8mph /  20.6km/h 95% 0in /  0.0mm
11:30 55 °F /  12.8 °C 53.8 °F /  12.1 °C 30.1in /  1018.8hPa West 12.1mph /  19.5km/h 14.3mph /  23.0km/h 95% 0in /  0.0mm
11:35 55 °F /  12.8 °C 53.4 °F /  11.9 °C 30.1in /  1018.8hPa West 12.8mph /  20.6km/h 14.3mph /  23.0km/h 94% 0in /  0.0mm
11:40 55 °F /  12.8 °C 53.4 °F /  11.9 °C 30.1in /  1018.8hPa West 9.8mph /  15.8km/h 13.4mph /  21.6km/h 94% 0in /  0.0mm
11:45 55 °F /  12.8 °C 53.4 °F /  11.9 °C 30.1in /  1018.8hPa WSW 8.1mph /  13.0km/h 13.4mph /  21.6km/h 94% 0in /  0.0mm
11:50 55 °F /  12.8 °C 53.4 °F /  11.9 °C 30.1in /  1018.8hPa WSW 7.6mph /  12.2km/h 12.1mph /  19.5km/h 94% 0in /  0.0mm
11:55 55 °F /  12.8 °C 53.4 °F /  11.9 °C 30.1in /  1018.8hPa NNW 8.1mph /  13.0km/h 11.2mph /  18.0km/h 94% 0in /  0.0mm
12:00 55 °F /  12.8 °C 53.4 °F /  11.9 °C 30.1in /  1018.8hPa West 2.9mph /  4.7km/h 12.3mph /  19.8km/h 94% 0in /  0.0mm
12:05 55.2 °F /  12.9 °C 53.6 °F /  12.0 °C 30.1in /  1018.8hPa West 2.9mph /  4.7km/h 12.3mph /  19.8km/h 94% 0in /  0.0mm
12:10 55.2 °F /  12.9 °C 53.2 °F /  11.8 °C 30.1in /  1018.8hPa WSW 7.8mph /  12.6km/h 13mph /  20.9km/h 93% 0in /  0.0mm
12:15 55.2 °F /  12.9 °C 53.2 °F /  11.8 °C 30.1in /  1018.8hPa West 12.8mph /  20.6km/h 14.1mph /  22.7km/h 93% 0in /  0.0mm
12:20 55.6 °F /  13.1 °C 53.2 °F /  11.8 °C 30.1in /  1018.8hPa NNW 5.8mph /  9.3km/h 15.9mph /  25.6km/h 92% 0in /  0.0mm
12:25 55.6 °F /  13.1 °C 53.6 °F /  12.0 °C 30.1in /  1018.8hPa NNW 5.6mph /  9.0km/h 15.9mph /  25.6km/h 93% 0in /  0.0mm
12:30 55.8 °F /  13.2 °C 53.8 °F /  12.1 °C 30.1in /  1018.8hPa WSW 3.8mph /  6.1km/h 9.8mph /  15.8km/h 93% 0in /  0.0mm
12:35 55.6 °F /  13.1 °C 53.2 °F /  11.8 °C 30.1in /  1018.8hPa South 11.2mph /  18.0km/h 13mph /  20.9km/h 92% 0in /  0.0mm
12:40 55.8 °F /  13.2 °C 53.4 °F /  11.9 °C 30.1in /  1018.8hPa Calm   13mph /  20.9km/h 92% 0in /  0.0mm
12:45 55.9 °F /  13.3 °C 53.8 °F /  12.1 °C 30.1in /  1018.8hPa West 5.6mph /  9.0km/h 10.5mph /  16.9km/h 92% 0in /  0.0mm
12:50 56.1 °F /  13.4 °C 54 °F /  12.2 °C 30.1in /  1018.8hPa West 12.3mph /  19.8km/h 12.8mph /  20.6km/h 92% 0in /  0.0mm
12:55 56.3 °F /  13.5 °C 54 °F /  12.2 °C 30.1in /  1018.8hPa West 7.6mph /  12.2km/h 14.3mph /  23.0km/h 92% 0in /  0.0mm
13:00 56.5 °F /  13.6 °C 54 °F /  12.2 °C 30.1in /  1018.8hPa WSW 8.7mph /  14.0km/h 14.3mph /  23.0km/h 91% 0in /  0.0mm
13:05 56.8 °F /  13.8 °C 54 °F /  12.2 °C 30.1in /  1018.8hPa West 9.6mph /  15.4km/h 15.2mph /  24.5km/h 90% 0in /  0.0mm
13:10 56.8 °F /  13.8 °C 53.1 °F /  11.7 °C 30.1in /  1018.8hPa West 10.1mph /  16.3km/h 15.2mph /  24.5km/h 87% 0in /  0.0mm
13:15 57.2 °F /  14.0 °C 53.4 °F /  11.9 °C 30.1in /  1018.8hPa West 7.8mph /  12.6km/h 15.2mph /  24.5km/h 87% 0in /  0.0mm
13:20 57.2 °F /  14.0 °C 53.1 °F /  11.7 °C 30.1in /  1018.8hPa West 17.4mph /  28.0km/h 17.4mph /  28.0km/h 86% 0in /  0.0mm
13:25 57.4 °F /  14.1 °C 52.9 °F /  11.6 °C 30.1in /  1018.8hPa West 10.7mph /  17.2km/h 17.4mph /  28.0km/h 85% 0in /  0.0mm
13:30 58.1 °F /  14.5 °C 53.1 °F /  11.7 °C 30.1in /  1018.8hPa WSW 10.3mph /  16.6km/h 14.8mph /  23.8km/h 83% 0in /  0.0mm
13:35 58.6 °F /  14.8 °C 52.2 °F /  11.2 °C 30.1in /  1018.8hPa West 11mph /  17.7km/h 15.7mph /  25.3km/h 79% 0in /  0.0mm
13:40 59.2 °F /  15.1 °C 52.3 °F /  11.3 °C 30.1in /  1018.8hPa WNW 9.2mph /  14.8km/h 15.7mph /  25.3km/h 78% 0in /  0.0mm
13:45 59.2 °F /  15.1 °C 51.6 °F /  10.9 °C 30.1in /  1018.8hPa WNW 8.5mph /  13.7km/h 15.2mph /  24.5km/h 76% 0in /  0.0mm
13:50 59 °F /  15.0 °C 51.8 °F /  11.0 °C 30.1in /  1018.8hPa WSW 10.1mph /  16.3km/h 13.6mph /  21.9km/h 77% 0in /  0.0mm
13:55 59 °F /  15.0 °C 52.2 °F /  11.2 °C 30.1in /  1018.8hPa West 6.7mph /  10.8km/h 13mph /  20.9km/h 78% 0in /  0.0mm
14:00 59.2 °F /  15.1 °C 52 °F /  11.1 °C 30.1in /  1018.8hPa SSW 12.8mph /  20.6km/h 13.2mph /  21.2km/h 77% 0in /  0.0mm
14:05 59.2 °F /  15.1 °C 52 °F /  11.1 °C 30.1in /  1018.8hPa West 7.4mph /  11.9km/h 15.7mph /  25.3km/h 77% 0in /  0.0mm
14:10 59 °F /  15.0 °C 51.8 °F /  11.0 °C 30.1in /  1018.8hPa West 4.3mph /  6.9km/h 15.7mph /  25.3km/h 77% 0in /  0.0mm
14:15 59.2 °F /  15.1 °C 51.3 °F /  10.7 °C 30.1in /  1018.8hPa SW 10.7mph /  17.2km/h 13mph /  20.9km/h 75% 0in /  0.0mm
14:20 59.7 °F /  15.4 °C 51.4 °F /  10.8 °C 30.1in /  1018.8hPa West 9.6mph /  15.4km/h 15.7mph /  25.3km/h 74% 0in /  0.0mm
14:25 59.7 °F /  15.4 °C 51.8 °F /  11.0 °C 30.1in /  1019.9hPa WNW 4.3mph /  6.9km/h 17mph /  27.4km/h 75% 0in /  0.0mm
14:30 59.4 °F /  15.2 °C 51.4 °F /  10.8 °C 30.1in /  1019.9hPa NNW 3.4mph /  5.5km/h 17mph /  27.4km/h 75% 0in /  0.0mm
14:35 59 °F /  15.0 °C 50.7 °F /  10.4 °C 30.1in /  1019.9hPa WNW 8.9mph /  14.3km/h 10.5mph /  16.9km/h 74% 0in /  0.0mm
14:40 59.2 °F /  15.1 °C 51.6 °F /  10.9 °C 30.1in /  1019.9hPa West 4mph /  6.4km/h 9.6mph /  15.4km/h 76% 0in /  0.0mm
14:45 59.2 °F /  15.1 °C 50.5 °F /  10.3 °C 30.1in /  1019.9hPa West 6mph /  9.7km/h 14.5mph /  23.3km/h 73% 0in /  0.0mm
14:50 59.7 °F /  15.4 °C 51.4 °F /  10.8 °C 30.1in /  1019.9hPa West 5.6mph /  9.0km/h 14.5mph /  23.3km/h 74% 0in /  0.0mm
14:55 59.4 °F /  15.2 °C 51.1 °F /  10.6 °C 30.1in /  1019.9hPa NNW 7.6mph /  12.2km/h 11mph /  17.7km/h 74% 0in /  0.0mm
15:00 60.4 °F /  15.8 °C 52.2 °F /  11.2 °C 30.1in /  1019.9hPa West 1.6mph /  2.6km/h 11mph /  17.7km/h 74% 0in /  0.0mm
15:05 60.6 °F /  15.9 °C 52.2 °F /  11.2 °C 30.1in /  1019.9hPa West 8.1mph /  13.0km/h 10.3mph /  16.6km/h 74% 0in /  0.0mm
15:10 61 °F /  16.1 °C 51.8 °F /  11.0 °C 30.2in /  1020.9hPa WNW 10.1mph /  16.3km/h 10.7mph /  17.2km/h 72% 0in /  0.0mm
15:15 61.5 °F /  16.4 °C 52.2 °F /  11.2 °C 30.2in /  1020.9hPa West 8.5mph /  13.7km/h 12.3mph /  19.8km/h 71% 0in /  0.0mm
15:20 61.5 °F /  16.4 °C 51.3 °F /  10.7 °C 30.2in /  1020.9hPa WNW 3.1mph /  5.0km/h 12.3mph /  19.8km/h 69% 0in /  0.0mm
15:25 61.2 °F /  16.2 °C 50.9 °F /  10.5 °C 30.2in /  1020.9hPa West 4.9mph /  7.9km/h 12.3mph /  19.8km/h 69% 0in /  0.0mm
15:30 61.9 °F /  16.6 °C 51.4 °F /  10.8 °C 30.2in /  1020.9hPa West 13.2mph /  21.2km/h 15.4mph /  24.8km/h 69% 0in /  0.0mm
15:35 60.8 °F /  16.0 °C 50.5 °F /  10.3 °C 30.2in /  1020.9hPa West 7.6mph /  12.2km/h 15.4mph /  24.8km/h 69% 0in /  0.0mm
15:40 61.2 °F /  16.2 °C 50.9 °F /  10.5 °C 30.2in /  1020.9hPa West 6.5mph /  10.5km/h 14.1mph /  22.7km/h 69% 0in /  0.0mm
15:45 60.4 °F /  15.8 °C 50.2 °F /  10.1 °C 30.2in /  1020.9hPa West 5.8mph /  9.3km/h 12.5mph /  20.1km/h 69% 0in /  0.0mm
15:50 61 °F /  16.1 °C 50.7 °F /  10.4 °C 30.2in /  1020.9hPa WNW 2.9mph /  4.7km/h 12.5mph /  20.1km/h 69% 0in /  0.0mm
15:55 61 °F /  16.1 °C 51.1 °F /  10.6 °C 30.2in /  1020.9hPa West 9.8mph /  15.8km/h 13.2mph /  21.2km/h 70% 0in /  0.0mm
16:00 61.2 °F /  16.2 °C 51.3 °F /  10.7 °C 30.2in /  1020.9hPa West 5.8mph /  9.3km/h 13.2mph /  21.2km/h 70% 0in /  0.0mm
16:05 61.9 °F /  16.6 °C 52 °F /  11.1 °C 30.2in /  1020.9hPa West 6.5mph /  10.5km/h 12.5mph /  20.1km/h 70% 0in /  0.0mm
16:10 61.5 °F /  16.4 °C 51.4 °F /  10.8 °C 30.2in /  1020.9hPa WNW 6mph /  9.7km/h 12.5mph /  20.1km/h 69% 0in /  0.0mm
16:15 61.5 °F /  16.4 °C 51.4 °F /  10.8 °C 30.2in /  1020.9hPa WNW 4.9mph /  7.9km/h 12.5mph /  20.1km/h 69% 0in /  0.0mm
16:20 60.8 °F /  16.0 °C 50.5 °F /  10.3 °C 30.2in /  1020.9hPa West 6.5mph /  10.5km/h 13mph /  20.9km/h 69% 0in /  0.0mm
16:25 60.4 °F /  15.8 °C 50.5 °F /  10.3 °C 30.2in /  1020.9hPa West 10.7mph /  17.2km/h 13mph /  20.9km/h 70% 0in /  0.0mm
16:30 60.4 °F /  15.8 °C 51.1 °F /  10.6 °C 30.2in /  1020.9hPa WSW 10.3mph /  16.6km/h 12.3mph /  19.8km/h 71% 0in /  0.0mm
16:35 60.6 °F /  15.9 °C 52 °F /  11.1 °C 30.2in /  1020.9hPa WSW 10.7mph /  17.2km/h 12.3mph /  19.8km/h 73% 0in /  0.0mm
16:40 60.4 °F /  15.8 °C 51.6 °F /  10.9 °C 30.2in /  1020.9hPa WSW 8.5mph /  13.7km/h 13.2mph /  21.2km/h 73% 0in /  0.0mm
16:45 59.5 °F /  15.3 °C 51.3 °F /  10.7 °C 30.2in /  1020.9hPa West 10.7mph /  17.2km/h 13.2mph /  21.2km/h 74% 0in /  0.0mm
16:50 58.6 °F /  14.8 °C 50.4 °F /  10.2 °C 30.2in /  1020.9hPa West 7.8mph /  12.6km/h 11.9mph /  19.1km/h 74% 0in /  0.0mm
16:55 58.1 °F /  14.5 °C 50.5 °F /  10.3 °C 30.1in /  1019.9hPa West 7.4mph /  11.9km/h 10.7mph /  17.2km/h 76% 0in /  0.0mm
16:56 57.9 °F /  14.4 °C 50.4 °F /  10.2 °C 30.1in /  1019.9hPa West 8.1mph /  13.0km/h 10.7mph /  17.2km/h 76% 0in /  0.0mm
17:01 57.7 °F /  14.3 °C 50.5 °F /  10.3 °C 30.1in /  1019.9hPa SW 2.5mph /  4.0km/h 10.7mph /  17.2km/h 77% 0in /  0.0mm
17:06 57.9 °F /  14.4 °C 51.1 °F /  10.6 °C 30.1in /  1019.9hPa West 6.5mph /  10.5km/h 10.5mph /  16.9km/h 78% 0in /  0.0mm
17:11 57.7 °F /  14.3 °C 51.3 °F /  10.7 °C 30.2in /  1020.9hPa WNW 6mph /  9.7km/h 13mph /  20.9km/h 79% 0in /  0.0mm
17:12 57.7 °F /  14.3 °C 51.3 °F /  10.7 °C 30.2in /  1020.9hPa NW 3.4mph /  5.5km/h 13mph /  20.9km/h 79% 0in /  0.0mm
17:17 57.9 °F /  14.4 °C 51.8 °F /  11.0 °C 30.2in /  1020.9hPa West 2.9mph /  4.7km/h 13mph /  20.9km/h 80% 0in /  0.0mm
17:22 58.3 °F /  14.6 °C 52.2 °F /  11.2 °C 30.2in /  1020.9hPa West 4mph /  6.4km/h 8.7mph /  14.0km/h 80% 0in /  0.0mm
17:27 58.1 °F /  14.5 °C 51.6 °F /  10.9 °C 30.2in /  1021.9hPa WNW 4mph /  6.4km/h 8.7mph /  14.0km/h 79% 0in /  0.0mm
17:32 57.6 °F /  14.2 °C 51.1 °F /  10.6 °C 30.2in /  1021.9hPa WNW 3.6mph /  5.8km/h 7.8mph /  12.6km/h 79% 0in /  0.0mm
17:37 57.2 °F /  14.0 °C 50.7 °F /  10.4 °C 30.2in /  1021.9hPa West 3.1mph /  5.0km/h 8.9mph /  14.3km/h 79% 0in /  0.0mm
17:42 56.7 °F /  13.7 °C 50.5 °F /  10.3 °C 30.1in /  1019.9hPa Calm   8.9mph /  14.3km/h 80% 0in /  0.0mm
17:47 56.7 °F /  13.7 °C 50.9 °F /  10.5 °C 30.1in /  1019.9hPa West 2.5mph /  4.0km/h 4.3mph /  6.9km/h 81% 0in /  0.0mm
17:52 56.7 °F /  13.7 °C 50.9 °F /  10.5 °C 30.1in /  1019.9hPa Calm   4.3mph /  6.9km/h 81% 0in /  0.0mm
17:57 56.5 °F /  13.6 °C 51.1 °F /  10.6 °C 30.2in /  1020.9hPa Calm   4mph /  6.4km/h 82% 0in /  0.0mm
18:02 56.5 °F /  13.6 °C 51.1 °F /  10.6 °C 30.2in /  1020.9hPa Calm   5.4mph /  8.7km/h 82% 0in /  0.0mm
18:07 56.1 °F /  13.4 °C 51.1 °F /  10.6 °C 30.2in /  1020.9hPa Calm   5.6mph /  9.0km/h 83% 0in /  0.0mm
18:12 55.8 °F /  13.2 °C 50.7 °F /  10.4 °C 30.2in /  1021.9hPa West 3.4mph /  5.5km/h 5.6mph /  9.0km/h 83% 0in /  0.0mm
18:17 55.6 °F /  13.1 °C 50.4 °F /  10.2 °C 30.2in /  1021.9hPa Calm   4.9mph /  7.9km/h 83% 0in /  0.0mm
18:20 55 °F /  12.8 °C 50 °F /  10.0 °C 30.2in /  1021.9hPa West 3.1mph /  5.0km/h 4.7mph /  7.6km/h 83% 0in /  0.0mm
18:25 54.9 °F /  12.7 °C 50 °F /  10.0 °C 30.2in /  1021.9hPa Calm   4.9mph /  7.9km/h 84% 0in /  0.0mm
18:30 54.3 °F /  12.4 °C 49.6 °F /  9.8 °C 30.2in /  1021.9hPa Calm   4.9mph /  7.9km/h 84% 0in /  0.0mm
18:35 54.1 °F /  12.3 °C 49.8 °F /  9.9 °C 30.2in /  1021.9hPa West 3.4mph /  5.5km/h 3.8mph /  6.1km/h 85% 0in /  0.0mm
18:40 54 °F /  12.2 °C 49.6 °F /  9.8 °C 30.2in /  1021.9hPa West 2.7mph /  4.3km/h 3.8mph /  6.1km/h 85% 0in /  0.0mm
18:45 54 °F /  12.2 °C 49.8 °F /  9.9 °C 30.2in /  1021.9hPa West 3.4mph /  5.5km/h 4mph /  6.4km/h 86% 0in /  0.0mm
18:50 53.8 °F /  12.1 °C 49.6 °F /  9.8 °C 30.2in /  1021.9hPa West 3.4mph /  5.5km/h 4.7mph /  7.6km/h 86% 0in /  0.0mm
18:55 53.4 °F /  11.9 °C 49.6 °F /  9.8 °C 30.2in /  1021.9hPa West 2.5mph /  4.0km/h 5.6mph /  9.0km/h 87% 0in /  0.0mm
19:01 53.4 °F /  11.9 °C 50.2 °F /  10.1 °C 30.2in /  1021.9hPa West 2.7mph /  4.3km/h 5.6mph /  9.0km/h 88% 0in /  0.0mm
19:06 53.4 °F /  11.9 °C 50.2 °F /  10.1 °C 30.2in /  1021.9hPa West 6mph /  9.7km/h 6mph /  9.7km/h 88% 0in /  0.0mm
19:11 53.4 °F /  11.9 °C 50.4 °F /  10.2 °C 30.2in /  1022.9hPa WNW 3.4mph /  5.5km/h 6mph /  9.7km/h 89% 0in /  0.0mm
19:16 53.2 °F /  11.8 °C 50.2 °F /  10.1 °C 30.2in /  1022.9hPa Calm   5.8mph /  9.3km/h 89% 0in /  0.0mm
19:21 53.2 °F /  11.8 °C 50 °F /  10.0 °C 30.2in /  1022.9hPa Calm   4.7mph /  7.6km/h 89% 0in /  0.0mm
19:26 53.1 °F /  11.7 °C 50.2 °F /  10.1 °C 30.2in /  1022.9hPa West 1.6mph /  2.6km/h 2.9mph /  4.7km/h 90% 0in /  0.0mm
19:31 52.9 °F /  11.6 °C 50 °F /  10.0 °C 30.2in /  1022.9hPa Calm   3.4mph /  5.5km/h 90% 0in /  0.0mm
19:33 52.9 °F /  11.6 °C 50 °F /  10.0 °C 30.2in /  1022.9hPa Calm   3.4mph /  5.5km/h 90% 0in /  0.0mm
19:34 52.5 °F /  11.4 °C 49.8 °F /  9.9 °C 30.2in /  1022.9hPa Calm   3.4mph /  5.5km/h 90% 0in /  0.0mm
19:38 52.5 °F /  11.4 °C 49.6 °F /  9.8 °C 30.2in /  1022.9hPa WNW 2mph /  3.2km/h 2.9mph /  4.7km/h 90% 0in /  0.0mm
19:42 52.2 °F /  11.2 °C 49.3 °F /  9.6 °C 30.2in /  1022.9hPa Calm   2.9mph /  4.7km/h 90% 0in /  0.0mm
19:43 52.2 °F /  11.2 °C 48.9 °F /  9.4 °C 30.2in /  1022.9hPa Calm   2.9mph /  4.7km/h 89% 0in /  0.0mm
19:44 52.2 °F /  11.2 °C 48.9 °F /  9.4 °C 30.2in /  1022.9hPa Calm   2.7mph /  4.3km/h 89% 0in /  0.0mm
19:49 51.8 °F /  11.0 °C 48.6 °F /  9.2 °C 30.2in /  1022.9hPa WNW 2.2mph /  3.5km/h 2.7mph /  4.3km/h 89% 0in /  0.0mm
19:50 51.8 °F /  11.0 °C 48.6 °F /  9.2 °C 30.2in /  1022.9hPa Calm   2.7mph /  4.3km/h 89% 0in /  0.0mm
19:55 51.4 °F /  10.8 °C 48 °F /  8.9 °C 30.2in /  1022.9hPa SW 0.9mph /  1.4km/h 2.2mph /  3.5km/h 88% 0in /  0.0mm
20:00 51.1 °F /  10.6 °C 47.3 °F /  8.5 °C 30.2in /  1022.9hPa Calm   2mph /  3.2km/h 87% 0in /  0.0mm
20:05 50.9 °F /  10.5 °C 46.8 °F /  8.2 °C 30.2in /  1022.9hPa West 2mph /  3.2km/h 3.8mph /  6.1km/h 86% 0in /  0.0mm
20:10 50.7 °F /  10.4 °C 47.3 °F /  8.5 °C 30.2in /  1023.9hPa Calm   3.8mph /  6.1km/h 88% 0in /  0.0mm
20:15 50.7 °F /  10.4 °C 47.3 °F /  8.5 °C 30.2in /  1023.9hPa West 3.1mph /  5.0km/h 4mph /  6.4km/h 88% 0in /  0.0mm
20:20 50.2 °F /  10.1 °C 46.8 °F /  8.2 °C 30.2in /  1023.9hPa Calm   4mph /  6.4km/h 88% 0in /  0.0mm
20:25 50 °F /  10.0 °C 46.6 °F /  8.1 °C 30.2in /  1023.9hPa Calm   4mph /  6.4km/h 88% 0in /  0.0mm
20:30 49.8 °F /  9.9 °C 46.8 °F /  8.2 °C 30.2in /  1023.9hPa Calm   3.4mph /  5.5km/h 89% 0in /  0.0mm
20:35 49.3 °F /  9.6 °C 46.2 °F /  7.9 °C 30.2in /  1023.9hPa Calm     89% 0in /  0.0mm
20:40 49.1 °F /  9.5 °C 46.2 °F /  7.9 °C 30.2in /  1023.9hPa Calm   1.6mph /  2.6km/h 90% 0in /  0.0mm
20:45 48.7 °F /  9.3 °C 46 °F /  7.8 °C 30.2in /  1023.9hPa NW 2mph /  3.2km/h 4mph /  6.4km/h 90% 0in /  0.0mm
20:50 48.9 °F /  9.4 °C 45.5 °F /  7.5 °C 30.2in /  1023.9hPa North 2mph /  3.2km/h 4.3mph /  6.9km/h 88% 0in /  0.0mm
20:55 48.9 °F /  9.4 °C 45.1 °F /  7.3 °C 30.3in /  1024.9hPa Calm   4.3mph /  6.9km/h 87% 0in /  0.0mm
21:00 49.1 °F /  9.5 °C 45.1 °F /  7.3 °C 30.3in /  1024.9hPa North 4.3mph /  6.9km/h 4.7mph /  7.6km/h 86% 0in /  0.0mm
21:05 49.1 °F /  9.5 °C 44.8 °F /  7.1 °C 30.3in /  1024.9hPa NNE 3.6mph /  5.8km/h 8.1mph /  13.0km/h 85% 0in /  0.0mm
21:10 49.1 °F /  9.5 °C 44.8 °F /  7.1 °C 30.3in /  1024.9hPa NNE 4.3mph /  6.9km/h 8.5mph /  13.7km/h 85% 0in /  0.0mm
21:15 48.9 °F /  9.4 °C 44.2 °F /  6.8 °C 30.3in /  1024.9hPa NE 6mph /  9.7km/h 8.7mph /  14.0km/h 84% 0in /  0.0mm
21:20 48.6 °F /  9.2 °C 43.7 °F /  6.5 °C 30.3in /  1024.9hPa NNE 6.3mph /  10.1km/h 8.7mph /  14.0km/h 83% 0in /  0.0mm
21:25 48.4 °F /  9.1 °C 43.5 °F /  6.4 °C 30.2in /  1023.9hPa NNE 3.6mph /  5.8km/h 7.8mph /  12.6km/h 83% 0in /  0.0mm
21:30 48 °F /  8.9 °C 43.2 °F /  6.2 °C 30.2in /  1023.9hPa NE 2.9mph /  4.7km/h 7.6mph /  12.2km/h 83% 0in /  0.0mm
21:35 47.5 °F /  8.6 °C 42.6 °F /  5.9 °C 30.2in /  1023.9hPa NE 4.3mph /  6.9km/h 7.6mph /  12.2km/h 83% 0in /  0.0mm
21:40 47.1 °F /  8.4 °C 42.3 °F /  5.7 °C 30.3in /  1024.9hPa NE 2.9mph /  4.7km/h 5.6mph /  9.0km/h 83% 0in /  0.0mm
21:45 46.9 °F /  8.3 °C 42.1 °F /  5.6 °C 30.3in /  1024.9hPa NE 2mph /  3.2km/h 4.7mph /  7.6km/h 83% 0in /  0.0mm
21:50 46.6 °F /  8.1 °C 41.7 °F /  5.4 °C 30.3in /  1024.9hPa Calm   4mph /  6.4km/h 83% 0in /  0.0mm
21:55 46.2 °F /  7.9 °C 41.4 °F /  5.2 °C 30.3in /  1024.9hPa NE 4.3mph /  6.9km/h 4.3mph /  6.9km/h 83% 0in /  0.0mm
22:00 46 °F /  7.8 °C 41.2 °F /  5.1 °C 30.3in /  1024.9hPa NNE 3.4mph /  5.5km/h 4.7mph /  7.6km/h 83% 0in /  0.0mm
22:05 45.9 °F /  7.7 °C 41.4 °F /  5.2 °C 30.3in /  1024.9hPa NNE 3.8mph /  6.1km/h 4.7mph /  7.6km/h 84% 0in /  0.0mm
22:10 45.9 °F /  7.7 °C 41.2 °F /  5.1 °C 30.3in /  1024.9hPa Calm   3.8mph /  6.1km/h 84% 0in /  0.0mm
22:15 45.7 °F /  7.6 °C 41 °F /  5.0 °C 30.3in /  1024.9hPa Calm   3.1mph /  5.0km/h 84% 0in /  0.0mm
22:20 45.1 °F /  7.3 °C 40.6 °F /  4.8 °C 30.3in /  1024.9hPa Calm   3.1mph /  5.0km/h 84% 0in /  0.0mm
22:25 45.1 °F /  7.3 °C 40.5 °F /  4.7 °C 30.3in /  1026.0hPa Calm   3.1mph /  5.0km/h 84% 0in /  0.0mm
22:30 44.4 °F /  6.9 °C 39.9 °F /  4.4 °C 30.3in /  1026.0hPa NNE 1.3mph /  2.1km/h 2.7mph /  4.3km/h 84% 0in /  0.0mm
22:35 44.2 °F /  6.8 °C 39.6 °F /  4.2 °C 30.3in /  1026.0hPa Calm   2.7mph /  4.3km/h 84% 0in /  0.0mm
22:40 43.9 °F /  6.6 °C 39.6 °F /  4.2 °C 30.3in /  1026.0hPa NNE 3.1mph /  5.0km/h 3.1mph /  5.0km/h 85% 0in /  0.0mm
22:45 43.5 °F /  6.4 °C 39.4 °F /  4.1 °C 30.3in /  1026.0hPa NNE 1.3mph /  2.1km/h 4.3mph /  6.9km/h 85% 0in /  0.0mm
22:50 43.5 °F /  6.4 °C 39.7 °F /  4.3 °C 30.3in /  1026.0hPa NE 3.1mph /  5.0km/h 4.3mph /  6.9km/h 86% 0in /  0.0mm
22:55 43.5 °F /  6.4 °C 39.7 °F /  4.3 °C 30.3in /  1026.0hPa NE 3.8mph /  6.1km/h 4.3mph /  6.9km/h 86% 0in /  0.0mm
23:00 43.9 °F /  6.6 °C 40.3 °F /  4.6 °C 30.3in /  1026.0hPa NNE 5.6mph /  9.0km/h 6mph /  9.7km/h 87% 0in /  0.0mm
23:05 44.1 °F /  6.7 °C 40.5 °F /  4.7 °C 30.3in /  1026.0hPa NNE 2.7mph /  4.3km/h 6.3mph /  10.1km/h 87% 0in /  0.0mm
23:10 43.9 °F /  6.6 °C 40.3 °F /  4.6 °C 30.3in /  1026.0hPa NNE 3.1mph /  5.0km/h 6.3mph /  10.1km/h 87% 0in /  0.0mm
23:15 43.5 °F /  6.4 °C 39.7 °F /  4.3 °C 30.3in /  1026.0hPa NNE 4.3mph /  6.9km/h 5.6mph /  9.0km/h 86% 0in /  0.0mm
23:20 43.5 °F /  6.4 °C 39.6 °F /  4.2 °C 30.3in /  1026.0hPa North 1.3mph /  2.1km/h 4.3mph /  6.9km/h 86% 0in /  0.0mm
23:25 43.3 °F /  6.3 °C 39.4 °F /  4.1 °C 30.3in /  1026.0hPa NNE 2.9mph /  4.7km/h 4.3mph /  6.9km/h 86% 0in /  0.0mm
23:30 43 °F /  6.1 °C 39 °F /  3.9 °C 30.3in /  1026.0hPa NNE 3.4mph /  5.5km/h 4.3mph /  6.9km/h 86% 0in /  0.0mm
23:36 43 °F /  6.1 °C 39.4 °F /  4.1 °C 30.3in /  1026.0hPa NE 3.4mph /  5.5km/h 4.3mph /  6.9km/h 87% 0in /  0.0mm
23:41 43 °F /  6.1 °C 39.4 °F /  4.1 °C 30.3in /  1026.0hPa NE 3.4mph /  5.5km/h 4.7mph /  7.6km/h 87% 0in /  0.0mm
23:46 42.8 °F /  6.0 °C 39.2 °F /  4.0 °C 30.3in /  1026.0hPa NE 4.5mph /  7.2km/h 6.5mph /  10.5km/h 87% 0in /  0.0mm
23:51 42.8 °F /  6.0 °C 39.2 °F /  4.0 °C 30.3in /  1026.0hPa NE 3.4mph /  5.5km/h 6.5mph /  10.5km/h 87% 0in /  0.0mm
23:56 42.6 °F /  5.9 °C 39 °F /  3.9 °C 30.3in /  1026.0hPa NE 2.9mph /  4.7km/h 4.3mph /  6.9km/h 87% 0in /  0.0mm
Données Historique de Météo Turbie

Mise a jour : 26/05/2018 16:06:13
Généré par Cumulus 1.9.4 (1099)